createdAt,value
2019-05-16T00:02:21.532Z,14.40
2019-05-16T00:04:51.445Z,14.50
2019-05-16T00:07:21.454Z,14.50
2019-05-16T00:09:51.367Z,14.50
2019-05-16T00:12:21.282Z,14.20
2019-05-16T00:14:51.294Z,14.20
2019-05-16T00:17:21.304Z,14.40
2019-05-16T00:19:51.419Z,14.40
2019-05-16T00:22:21.631Z,14.40
2019-05-16T00:24:51.536Z,14.30
2019-05-16T00:27:21.566Z,14.30
2019-05-16T00:29:51.460Z,14.20
2019-05-16T00:32:21.661Z,14.30
2019-05-16T00:34:51.583Z,14.20
2019-05-16T00:37:23.139Z,13.80
2019-05-16T00:39:53.572Z,13.60
2019-05-16T00:42:23.683Z,13.20
2019-05-16T00:44:53.597Z,13.20
2019-05-16T00:47:23.883Z,13.50
2019-05-16T00:49:53.822Z,13.50
2019-05-16T00:52:24.222Z,13.70
2019-05-16T00:54:54.134Z,13.70
2019-05-16T00:57:24.925Z,13.40
2019-05-16T00:59:59.024Z,13.20
2019-05-16T01:02:28.885Z,13.40
2019-05-16T01:05:00.274Z,13.50
2019-05-16T01:07:30.187Z,13.30
2019-05-16T01:10:00.102Z,13.30
2019-05-16T01:12:30.014Z,13.30
2019-05-16T01:14:59.928Z,13.20
2019-05-16T01:17:30.038Z,13.10
2019-05-16T01:19:59.952Z,12.90
2019-05-16T01:22:30.161Z,12.80
2019-05-16T01:25:00.565Z,12.80
2019-05-16T01:27:30.478Z,12.80
2019-05-16T01:30:00.391Z,12.90
2019-05-16T01:32:32.102Z,12.90
2019-05-16T01:35:01.830Z,12.60
2019-05-16T01:37:31.803Z,12.70
2019-05-16T01:40:01.716Z,12.60
2019-05-16T01:42:31.509Z,12.60
2019-05-16T01:45:01.748Z,12.70
2019-05-16T01:47:32.046Z,12.60
2019-05-16T01:50:03.723Z,12.30
2019-05-16T01:52:34.724Z,12.30
2019-05-16T01:55:08.009Z,12.20
2019-05-16T01:57:39.151Z,12.20
2019-05-16T02:00:10.499Z,12.10
2019-05-16T02:02:40.471Z,12.10
2019-05-16T02:05:11.058Z,12.20
2019-05-16T02:07:41.084Z,12.20
2019-05-16T02:10:11.578Z,12.10
2019-05-16T02:12:41.500Z,12.20
2019-05-16T02:15:12.097Z,12.20
2019-05-16T02:17:42.020Z,12.10
2019-05-16T02:20:12.413Z,12.00
2019-05-16T02:22:42.432Z,12.00
2019-05-16T02:25:13.241Z,12.10
2019-05-16T02:27:43.143Z,12.10
2019-05-16T02:30:14.916Z,11.80
2019-05-16T02:32:44.839Z,11.60
2019-05-16T02:35:15.147Z,11.90
2019-05-16T02:37:45.362Z,11.90
2019-05-16T02:40:21.414Z,11.90
2019-05-16T02:42:51.759Z,11.80
2019-05-16T02:45:24.600Z,11.80
2019-05-16T02:47:53.461Z,11.70
2019-05-16T02:50:23.769Z,11.80
2019-05-16T02:52:53.682Z,11.80
2019-05-16T02:55:23.596Z,11.70
2019-05-16T02:57:53.516Z,11.80
2019-05-16T03:00:36.604Z,11.90
2019-05-16T03:03:07.587Z,11.60
2019-05-16T03:05:37.601Z,11.60
2019-05-16T03:08:12.056Z,11.70
2019-05-16T03:10:41.601Z,11.80
2019-05-16T03:13:12.343Z,11.90
2019-05-16T03:15:45.624Z,11.70
2019-05-16T03:18:21.344Z,11.80
2019-05-16T03:20:52.710Z,11.90
2019-05-16T03:23:22.631Z,11.90
2019-05-16T03:25:52.542Z,11.80
2019-05-16T03:28:22.570Z,11.70
2019-05-16T03:30:54.524Z,11.50
2019-05-16T03:33:33.055Z,11.60
2019-05-16T03:35:56.422Z,11.40
2019-05-16T03:38:26.333Z,11.50
2019-05-16T03:40:56.262Z,11.60
2019-05-16T03:43:26.356Z,11.70
2019-05-16T03:45:56.370Z,11.50
2019-05-16T03:48:26.379Z,11.50
2019-05-16T03:50:56.315Z,11.40
2019-05-16T03:53:26.698Z,11.20
2019-05-16T03:55:56.646Z,11.10
2019-05-16T03:58:26.623Z,11.10
2019-05-16T04:00:56.735Z,11.10
2019-05-16T04:03:28.919Z,11.10
2019-05-16T04:06:01.203Z,11.10
2019-05-16T04:08:31.000Z,11.30
2019-05-16T04:11:01.686Z,11.30
2019-05-16T04:13:32.479Z,11.10
2019-05-16T04:16:02.408Z,11.00
2019-05-16T04:18:32.418Z,11.00
2019-05-16T04:21:02.548Z,11.10
2019-05-16T04:23:32.445Z,11.20
2019-05-16T04:26:02.538Z,11.20
2019-05-16T04:28:32.672Z,11.10
2019-05-16T04:31:02.579Z,11.00
2019-05-16T04:33:32.684Z,10.90
2019-05-16T04:36:02.604Z,10.80
2019-05-16T04:38:40.818Z,10.90
2019-05-16T04:41:04.595Z,10.80
2019-05-16T04:43:34.891Z,10.90
2019-05-16T04:46:04.908Z,10.70
2019-05-16T04:48:34.917Z,10.70
2019-05-16T04:51:04.930Z,10.70
2019-05-16T04:53:35.138Z,10.70
2019-05-16T04:56:05.054Z,10.60
2019-05-16T04:58:35.069Z,10.60
2019-05-16T05:01:04.886Z,10.70
2019-05-16T05:03:35.089Z,10.90
2019-05-16T05:06:05.589Z,11.00
2019-05-16T05:08:50.648Z,11.00
2019-05-16T05:11:07.388Z,11.00
2019-05-16T05:13:37.690Z,11.00
2019-05-16T05:16:10.447Z,10.90
2019-05-16T05:18:40.871Z,10.90
2019-05-16T05:21:11.752Z,10.70
2019-05-16T05:23:41.962Z,10.70
2019-05-16T05:26:11.876Z,10.80
2019-05-16T05:28:41.790Z,10.70
2019-05-16T05:31:11.804Z,10.70
2019-05-16T05:33:41.902Z,10.80
2019-05-16T05:36:12.611Z,10.80
2019-05-16T05:38:42.820Z,10.60
2019-05-16T05:41:12.732Z,10.70
2019-05-16T05:43:42.649Z,10.60
2019-05-16T05:46:12.569Z,10.60
2019-05-16T05:48:42.609Z,10.70
2019-05-16T05:51:12.584Z,10.80
2019-05-16T05:53:42.499Z,10.80
2019-05-16T05:56:12.409Z,10.80
2019-05-16T05:58:42.356Z,10.90
2019-05-16T06:01:12.336Z,10.90
2019-05-16T06:03:42.349Z,11.10
2019-05-16T06:06:12.562Z,11.20
2019-05-16T06:08:42.565Z,11.20
2019-05-16T06:11:12.676Z,11.40
2019-05-16T06:13:42.589Z,11.40
2019-05-16T06:16:12.602Z,11.50
2019-05-16T06:18:44.046Z,11.50
2019-05-16T06:21:14.298Z,11.60
2019-05-16T06:23:44.210Z,11.70
2019-05-16T06:26:14.123Z,11.90
2019-05-16T06:28:44.626Z,12.00
2019-05-16T06:31:14.666Z,12.10
2019-05-16T06:33:44.606Z,12.30
2019-05-16T06:36:14.568Z,12.50
2019-05-16T06:38:44.676Z,12.70
2019-05-16T06:41:14.586Z,12.80
2019-05-16T06:43:44.500Z,13.00
2019-05-16T06:46:14.414Z,13.20
2019-05-16T06:48:44.523Z,13.40
2019-05-16T06:51:14.437Z,13.60
2019-05-16T06:53:44.852Z,13.80
2019-05-16T06:56:15.084Z,13.90
2019-05-16T06:58:48.406Z,14.10
2019-05-16T07:01:16.747Z,14.10
2019-05-16T07:03:46.961Z,14.20
2019-05-16T07:06:35.984Z,14.50
2019-05-16T07:08:50.753Z,14.60
2019-05-16T07:11:20.529Z,15.00
2019-05-16T07:13:52.056Z,15.00
2019-05-16T07:16:22.331Z,15.20
2019-05-16T07:18:52.332Z,15.30
2019-05-16T07:21:22.122Z,15.50
2019-05-16T07:23:52.060Z,15.60
2019-05-16T07:26:22.170Z,15.30
2019-05-16T07:28:52.086Z,15.70
2019-05-16T07:31:22.814Z,15.70
2019-05-16T07:33:53.286Z,16.40
2019-05-16T07:36:23.204Z,16.90
2019-05-16T07:38:53.805Z,17.10
2019-05-16T07:41:23.595Z,17.10
2019-05-16T07:43:53.539Z,17.30
2019-05-16T07:46:23.740Z,17.30
2019-05-16T07:48:53.666Z,17.20
2019-05-16T07:51:24.254Z,17.50
2019-05-16T07:53:54.202Z,18.20
2019-05-16T07:56:24.188Z,18.10
2019-05-16T07:58:54.503Z,18.40
2019-05-16T08:01:24.496Z,18.30
2019-05-16T08:03:54.411Z,18.50
2019-05-16T08:06:24.719Z,19.10
2019-05-16T08:08:54.929Z,19.80
2019-05-16T08:11:24.838Z,19.30
2019-05-16T08:13:54.752Z,19.30
2019-05-16T08:16:24.665Z,18.70
2019-05-16T08:18:54.677Z,18.90
2019-05-16T08:21:27.624Z,19.60
2019-05-16T08:23:56.695Z,19.50
2019-05-16T08:26:26.595Z,20.00
2019-05-16T08:28:56.498Z,19.90
2019-05-16T08:31:26.505Z,19.50
2019-05-16T08:33:56.519Z,20.00
2019-05-16T08:36:26.627Z,20.70
2019-05-16T08:38:56.737Z,20.70
2019-05-16T08:41:26.651Z,20.60
2019-05-16T08:43:56.958Z,20.80
2019-05-16T08:46:27.010Z,21.20
2019-05-16T08:48:57.080Z,20.40
2019-05-16T08:51:26.995Z,20.40
2019-05-16T08:54:01.310Z,20.50
2019-05-16T08:56:31.816Z,20.80
2019-05-16T08:59:02.462Z,21.70
2019-05-16T09:01:34.894Z,21.50
2019-05-16T09:04:05.037Z,21.00
2019-05-16T09:06:35.222Z,21.70
2019-05-16T09:09:26.504Z,21.70
2019-05-16T09:11:44.683Z,22.40
2019-05-16T09:14:11.056Z,21.90
2019-05-16T09:16:41.069Z,23.00
2019-05-16T09:19:10.986Z,22.70
2019-05-16T09:21:40.895Z,23.10
2019-05-16T09:24:10.909Z,23.20
2019-05-16T09:26:40.910Z,23.60
2019-05-16T09:29:10.930Z,23.70
2019-05-16T09:31:41.138Z,24.20
2019-05-16T09:34:11.054Z,23.60
2019-05-16T09:36:40.998Z,23.70
2019-05-16T09:39:11.376Z,23.80
2019-05-16T09:41:50.533Z,23.60
2019-05-16T09:44:13.098Z,24.10
2019-05-16T09:46:43.372Z,24.10
2019-05-16T09:49:20.409Z,24.40
2019-05-16T09:51:46.640Z,24.60
2019-05-16T09:54:17.640Z,25.00
2019-05-16T09:56:48.335Z,24.80
2019-05-16T09:59:18.248Z,23.40
2019-05-16T10:01:48.458Z,23.10
2019-05-16T10:04:18.368Z,23.90
2019-05-16T10:06:49.082Z,24.50
2019-05-16T10:09:18.986Z,25.10
2019-05-16T10:11:51.072Z,25.20
2019-05-16T10:14:21.474Z,24.30
2019-05-16T10:16:51.673Z,24.30
2019-05-16T10:19:21.589Z,25.60
2019-05-16T10:21:51.507Z,25.10
2019-05-16T10:24:21.413Z,25.40
2019-05-16T10:26:54.015Z,26.20
2019-05-16T10:29:23.510Z,25.60
2019-05-16T10:31:53.634Z,24.50
2019-05-16T10:34:23.524Z,24.70
2019-05-16T10:36:53.733Z,24.50
2019-05-16T10:39:23.941Z,25.00
2019-05-16T10:41:54.052Z,25.80
2019-05-16T10:44:24.014Z,26.00
2019-05-16T10:46:54.073Z,25.40
2019-05-16T10:49:36.173Z,25.50
2019-05-16T10:51:57.692Z,25.80
2019-05-16T10:54:28.065Z,25.60
2019-05-16T10:56:58.422Z,26.10
2019-05-16T11:02:00.472Z,27.00
2019-05-16T11:04:49.588Z,25.80
2019-05-16T11:07:02.131Z,26.00
2019-05-16T11:09:32.141Z,26.60
2019-05-16T11:12:03.037Z,26.60
2019-05-16T11:14:33.148Z,26.70
2019-05-16T11:17:03.455Z,26.60
2019-05-16T11:19:33.983Z,26.40
2019-05-16T11:22:04.167Z,25.30
2019-05-16T11:24:34.109Z,25.90
2019-05-16T11:27:04.091Z,27.30
2019-05-16T11:29:36.478Z,27.70
2019-05-16T11:32:06.990Z,27.70
2019-05-16T11:34:37.512Z,28.00
2019-05-16T11:37:07.873Z,27.50
2019-05-16T11:39:37.787Z,27.30
2019-05-16T11:42:08.207Z,28.20
2019-05-16T11:44:38.385Z,27.70
2019-05-16T11:47:08.677Z,27.50
2019-05-16T11:49:38.722Z,28.20
2019-05-16T11:52:08.734Z,27.00
2019-05-16T11:54:38.744Z,26.60
2019-05-16T11:57:08.949Z,26.00
2019-05-16T11:59:38.864Z,25.30
2019-05-16T12:02:08.777Z,26.40
2019-05-16T12:04:38.888Z,26.60
2019-05-16T12:07:09.096Z,26.10
2019-05-16T12:09:47.297Z,26.60
2019-05-16T12:12:10.555Z,26.90
2019-05-16T12:14:40.507Z,26.60
2019-05-16T12:17:10.715Z,26.10
2019-05-16T12:19:44.036Z,26.80
2019-05-16T12:22:13.067Z,26.40
2019-05-16T12:24:43.017Z,27.10
2019-05-16T12:27:12.846Z,27.10
2019-05-16T12:29:42.838Z,26.80
2019-05-16T12:32:12.763Z,26.90
2019-05-16T12:34:42.665Z,27.40
2019-05-16T12:37:12.578Z,26.90
2019-05-16T12:39:42.501Z,27.00
2019-05-16T12:42:12.699Z,26.90
2019-05-16T12:44:42.711Z,27.00
2019-05-16T12:47:12.626Z,26.00
2019-05-16T12:49:42.834Z,25.20
2019-05-16T12:52:13.238Z,25.50
2019-05-16T12:54:43.154Z,27.00
2019-05-16T12:57:13.164Z,27.00
2019-05-16T12:59:51.955Z,26.90
2019-05-16T13:02:15.012Z,27.00
2019-05-16T13:04:47.103Z,25.90
2019-05-16T13:07:17.323Z,26.10
2019-05-16T13:09:50.206Z,26.20
2019-05-16T13:12:19.150Z,26.50
2019-05-16T13:14:49.145Z,27.00
2019-05-16T13:17:19.173Z,26.70
2019-05-16T13:19:49.171Z,27.60
2019-05-16T13:22:19.178Z,27.30
2019-05-16T13:24:49.093Z,27.00
2019-05-16T13:27:22.862Z,26.90
2019-05-16T13:29:50.698Z,26.60
2019-05-16T13:32:20.798Z,26.20
2019-05-16T13:34:50.993Z,26.90
2019-05-16T13:37:20.926Z,27.10
2019-05-16T13:39:50.855Z,26.90
2019-05-16T13:42:20.746Z,27.00
2019-05-16T13:44:50.849Z,27.00
2019-05-16T13:47:21.359Z,27.40
2019-05-16T13:49:51.279Z,27.20
2019-05-16T13:52:21.196Z,27.00
2019-05-16T13:54:51.297Z,26.70
2019-05-16T13:57:21.210Z,26.80
2019-05-16T13:59:51.223Z,26.40
2019-05-16T14:02:21.135Z,25.90
2019-05-16T14:04:51.050Z,26.00
2019-05-16T14:07:20.966Z,26.00
2019-05-16T14:09:50.757Z,25.40
2019-05-16T14:12:20.710Z,24.90
2019-05-16T14:14:50.898Z,24.40
2019-05-16T14:17:20.814Z,24.10
2019-05-16T14:19:50.606Z,23.90
2019-05-16T14:22:20.540Z,23.90
2019-05-16T14:24:50.476Z,24.10
2019-05-16T14:27:20.465Z,24.10
2019-05-16T14:29:50.379Z,24.60
2019-05-16T14:32:20.365Z,24.90
2019-05-16T14:34:51.649Z,24.70
2019-05-16T14:37:22.184Z,25.30
2019-05-16T14:39:52.391Z,25.70
2019-05-16T14:42:22.507Z,25.90
2019-05-16T14:45:06.365Z,25.80
2019-05-16T14:47:26.979Z,26.00
2019-05-16T14:49:56.096Z,26.40
2019-05-16T14:52:27.111Z,26.50
2019-05-16T14:54:57.686Z,26.20
2019-05-16T14:57:27.687Z,26.20
2019-05-16T14:59:57.601Z,26.00
2019-05-16T15:02:27.778Z,25.70
2019-05-16T15:04:57.723Z,26.20
2019-05-16T15:07:27.818Z,25.80
2019-05-16T15:09:57.840Z,25.90
2019-05-16T15:12:27.754Z,25.90
2019-05-16T15:15:15.340Z,26.10
2019-05-16T15:17:29.350Z,26.00
2019-05-16T15:19:59.264Z,25.70
2019-05-16T15:22:29.181Z,26.00
2019-05-16T15:24:59.560Z,25.80
2019-05-16T15:27:29.790Z,25.90
2019-05-16T15:29:59.852Z,25.90
2019-05-16T15:32:31.855Z,25.40
2019-05-16T15:35:01.501Z,25.70
2019-05-16T15:37:31.563Z,25.80
2019-05-16T15:40:01.520Z,25.70
2019-05-16T15:42:31.432Z,25.60
2019-05-16T15:45:01.451Z,25.60
2019-05-16T15:47:31.947Z,25.20
2019-05-16T15:50:01.883Z,25.20
2019-05-16T15:52:38.111Z,25.20
2019-05-16T15:55:10.406Z,25.30
2019-05-16T15:57:40.648Z,25.00
2019-05-16T16:00:12.789Z,24.90
2019-05-16T16:02:42.931Z,24.70
2019-05-16T16:05:13.634Z,24.80
2019-05-16T16:07:43.542Z,25.10
2019-05-16T16:10:14.021Z,25.30
2019-05-16T16:12:43.959Z,25.30
2019-05-16T16:15:14.264Z,25.10
2019-05-16T16:17:46.489Z,25.10
2019-05-16T16:20:16.901Z,25.10
2019-05-16T16:22:47.247Z,25.10
2019-05-16T16:25:17.831Z,24.90
2019-05-16T16:27:47.726Z,24.80
2019-05-16T16:30:18.795Z,25.00
2019-05-16T16:32:49.290Z,24.90
2019-05-16T16:35:19.781Z,24.80
2019-05-16T16:37:49.780Z,24.80
2019-05-16T16:40:20.675Z,24.90
2019-05-16T16:42:50.606Z,24.80
2019-05-16T16:45:21.189Z,24.90
2019-05-16T16:47:51.200Z,24.70
2019-05-16T16:50:21.715Z,24.60
2019-05-16T16:52:51.616Z,24.50
2019-05-16T16:55:21.824Z,24.50
2019-05-16T16:57:55.737Z,24.60
2019-05-16T17:00:23.820Z,24.60
2019-05-16T17:03:03.059Z,24.60
2019-05-16T17:05:26.521Z,24.50
2019-05-16T17:07:57.228Z,24.40
2019-05-16T17:10:27.629Z,24.30
2019-05-16T17:12:57.811Z,24.10
2019-05-16T17:15:28.213Z,24.20
2019-05-16T17:17:58.126Z,24.00
2019-05-16T17:20:28.038Z,24.00
2019-05-16T17:22:58.072Z,24.00
2019-05-16T17:25:27.889Z,23.90
2019-05-16T17:27:58.170Z,23.80
2019-05-16T17:30:28.868Z,23.60
2019-05-16T17:32:59.076Z,23.60
2019-05-16T17:35:29.018Z,23.60
2019-05-16T17:37:59.009Z,23.50
2019-05-16T17:40:29.111Z,23.40
2019-05-16T17:43:01.186Z,23.40
2019-05-16T17:45:31.398Z,23.40
2019-05-16T17:48:01.309Z,23.40
2019-05-16T17:50:31.618Z,23.40
2019-05-16T17:53:01.613Z,23.30
2019-05-16T17:55:32.078Z,23.20
2019-05-16T17:58:05.181Z,23.20
2019-05-16T18:00:34.054Z,23.10
2019-05-16T18:03:06.418Z,23.00
2019-05-16T18:05:37.036Z,22.90
2019-05-16T18:08:07.716Z,22.80
2019-05-16T18:10:38.079Z,22.60
2019-05-16T18:13:08.227Z,22.50
2019-05-16T18:15:38.023Z,22.40
2019-05-16T18:18:08.140Z,22.30
2019-05-16T18:20:38.047Z,22.30
2019-05-16T18:23:07.959Z,22.30
2019-05-16T18:25:37.977Z,22.20
2019-05-16T18:28:08.474Z,22.10
2019-05-16T18:30:38.386Z,21.90
2019-05-16T18:33:08.500Z,21.80
2019-05-16T18:35:38.778Z,21.60
2019-05-16T18:38:09.424Z,21.50
2019-05-16T18:40:39.627Z,21.40
2019-05-16T18:43:09.443Z,21.30
2019-05-16T18:45:39.541Z,21.20
2019-05-16T18:48:09.760Z,21.10
2019-05-16T18:50:39.862Z,21.00
2019-05-16T18:53:09.966Z,21.00
2019-05-16T18:55:40.085Z,20.90
2019-05-16T18:58:10.003Z,20.80
2019-05-16T19:00:40.010Z,20.70
2019-05-16T19:03:09.834Z,20.70
2019-05-16T19:05:39.925Z,20.70
2019-05-16T19:08:10.080Z,20.70
2019-05-16T19:10:40.151Z,20.60
2019-05-16T19:13:12.455Z,20.50
2019-05-16T19:15:42.136Z,20.40
2019-05-16T19:18:12.540Z,20.20
2019-05-16T19:20:42.656Z,20.20
2019-05-16T19:23:12.577Z,20.00
2019-05-16T19:25:43.163Z,20.00
2019-05-16T19:28:13.175Z,19.90
2019-05-16T19:30:43.303Z,19.90
2019-05-16T19:33:13.204Z,19.90
2019-05-16T19:35:43.210Z,19.90
2019-05-16T19:38:13.917Z,19.80
2019-05-16T19:40:43.771Z,19.70
2019-05-16T19:43:13.762Z,19.70
2019-05-16T19:45:43.947Z,19.60
2019-05-16T19:48:14.088Z,19.50
2019-05-16T19:50:46.245Z,19.50
2019-05-16T19:53:16.597Z,19.50
2019-05-16T19:55:47.168Z,19.40
2019-05-16T19:58:17.365Z,19.40
2019-05-16T20:00:47.257Z,19.30
2019-05-16T20:03:17.212Z,19.30
2019-05-16T20:05:48.058Z,19.20
2019-05-16T20:08:18.513Z,19.00
2019-05-16T20:10:48.779Z,18.90
2019-05-16T20:13:18.888Z,18.60
2019-05-16T20:15:49.293Z,18.70
2019-05-16T20:18:19.402Z,18.60
2019-05-16T20:20:49.477Z,18.60
2019-05-16T20:23:19.292Z,18.50
2019-05-16T20:25:49.306Z,18.60
2019-05-16T20:28:19.269Z,18.40
2019-05-16T20:30:49.168Z,18.30
2019-05-16T20:33:19.077Z,18.20
2019-05-16T20:35:49.093Z,18.10
2019-05-16T20:38:19.006Z,18.10
2019-05-16T20:40:49.013Z,18.00
2019-05-16T20:43:19.517Z,18.00
2019-05-16T20:45:49.626Z,18.10
2019-05-16T20:48:19.542Z,18.10
2019-05-16T20:50:49.462Z,18.10
2019-05-16T20:53:19.564Z,17.80
2019-05-16T20:55:49.778Z,17.90
2019-05-16T20:58:19.997Z,17.90
2019-05-16T21:00:49.986Z,17.80
2019-05-16T21:03:20.592Z,17.80
2019-05-16T21:05:50.807Z,17.90
2019-05-16T21:08:21.219Z,17.90
2019-05-16T21:10:51.511Z,17.90
2019-05-16T21:13:21.720Z,17.80
2019-05-16T21:15:51.732Z,17.80
2019-05-16T21:18:21.663Z,17.90
2019-05-16T21:20:52.147Z,17.80
2019-05-16T21:23:22.456Z,17.80
2019-05-16T21:25:52.566Z,17.70
2019-05-16T21:28:22.677Z,17.70
2019-05-16T21:30:52.592Z,17.60
2019-05-16T21:33:22.613Z,17.70
2019-05-16T21:35:52.517Z,17.70
2019-05-16T21:38:22.819Z,17.70
2019-05-16T21:40:52.731Z,17.70
2019-05-16T21:43:22.651Z,17.60
2019-05-16T21:45:52.782Z,17.70
2019-05-16T21:48:22.668Z,17.70
2019-05-16T21:50:52.779Z,17.60
2019-05-16T21:53:23.289Z,17.50
2019-05-16T21:55:53.310Z,17.50
2019-05-16T21:58:23.174Z,17.50
2019-05-16T22:00:57.939Z,17.50
2019-05-16T22:03:28.149Z,17.40
2019-05-16T22:05:58.453Z,17.40
2019-05-16T22:08:28.463Z,17.30
2019-05-16T22:10:58.572Z,17.20
2019-05-16T22:13:28.807Z,17.20
2019-05-16T22:15:58.804Z,17.10
2019-05-16T22:18:29.103Z,17.10
2019-05-16T22:20:59.272Z,17.00
2019-05-16T22:23:29.818Z,17.00
2019-05-16T22:26:00.236Z,17.00
2019-05-16T22:28:30.522Z,16.90
2019-05-16T22:31:00.929Z,16.90
2019-05-16T22:33:30.840Z,16.80
2019-05-16T22:36:01.063Z,16.50
2019-05-16T22:38:30.873Z,16.50
2019-05-16T22:41:01.070Z,16.50
2019-05-16T22:43:32.264Z,16.50
2019-05-16T22:46:02.314Z,16.40
2019-05-16T22:48:32.127Z,16.50
2019-05-16T22:51:02.101Z,16.40
2019-05-16T22:53:32.112Z,16.40
2019-05-16T22:56:02.049Z,16.40
2019-05-16T22:58:32.044Z,16.40
2019-05-16T23:01:02.639Z,16.50
2019-05-16T23:03:32.553Z,16.50
2019-05-16T23:06:02.869Z,16.60
2019-05-16T23:08:33.165Z,16.50
2019-05-16T23:11:03.083Z,16.50
2019-05-16T23:13:33.090Z,16.50
2019-05-16T23:16:03.103Z,16.40
2019-05-16T23:18:33.093Z,16.40
2019-05-16T23:21:03.124Z,16.50
2019-05-16T23:23:33.236Z,16.50
2019-05-16T23:26:03.262Z,16.50
2019-05-16T23:28:33.224Z,16.40
2019-05-16T23:31:03.367Z,16.40
2019-05-16T23:33:33.272Z,16.40
2019-05-16T23:36:03.292Z,16.50
2019-05-16T23:38:33.205Z,16.60
2019-05-16T23:41:03.252Z,16.60
2019-05-16T23:43:33.228Z,16.40
2019-05-16T23:46:03.059Z,16.40
2019-05-16T23:48:33.055Z,16.40
2019-05-16T23:51:03.299Z,16.40
2019-05-16T23:53:33.179Z,16.30
2019-05-16T23:56:03.091Z,16.30
2019-05-16T23:58:32.887Z,16.30
